createdAt,value
2018-04-09T00:00:53.694Z,10.9
2018-04-09T00:01:56.086Z,11.1
2018-04-09T00:02:58.464Z,10.9
2018-04-09T00:04:00.836Z,11.1
2018-04-09T00:05:03.520Z,11.1
2018-04-09T00:06:06.585Z,11.1
2018-04-09T00:07:08.958Z,11.1
2018-04-09T00:08:11.353Z,11
2018-04-09T00:09:13.736Z,11
2018-04-09T00:10:16.132Z,10.9
2018-04-09T00:11:18.795Z,10.9
2018-04-09T00:12:21.183Z,10.9
2018-04-09T00:13:23.861Z,10.9
2018-04-09T00:14:26.244Z,10.9
2018-04-09T00:15:29.019Z,11.1
2018-04-09T00:16:31.783Z,10.9
2018-04-09T00:17:34.160Z,11
2018-04-09T00:18:36.538Z,10.9
2018-04-09T00:19:38.920Z,10.9
2018-04-09T00:20:41.312Z,10.9
2018-04-09T00:21:44.276Z,10.9
2018-04-09T00:22:46.674Z,10.9
2018-04-09T00:23:49.058Z,10.8
2018-04-09T00:24:51.445Z,10.9
2018-04-09T00:25:53.812Z,10.9
2018-04-09T00:26:56.200Z,10.8
2018-04-09T00:27:58.585Z,10.8
2018-04-09T00:29:00.972Z,11
2018-04-09T00:30:03.667Z,10.9
2018-04-09T00:31:06.045Z,11.1
2018-04-09T00:32:08.426Z,10.9
2018-04-09T00:33:10.816Z,10.9
2018-04-09T00:34:13.201Z,11
2018-04-09T00:35:15.577Z,11.1
2018-04-09T00:36:17.965Z,11.2
2018-04-09T00:37:20.352Z,11.2
2018-04-09T00:38:22.733Z,11.2
2018-04-09T00:39:25.116Z,11.2
2018-04-09T00:40:27.498Z,11.2
2018-04-09T00:41:29.881Z,11.2
2018-04-09T00:42:32.276Z,11.3
2018-04-09T00:43:34.650Z,11.2
2018-04-09T00:44:37.017Z,11.2
2018-04-09T00:45:39.398Z,11.2
2018-04-09T00:46:41.782Z,11.2
2018-04-09T00:47:44.441Z,11.1
2018-04-09T00:48:46.830Z,11.2
2018-04-09T00:49:49.208Z,11.2
2018-04-09T00:50:51.978Z,11.2
2018-04-09T00:51:54.380Z,11.2
2018-04-09T00:52:57.037Z,11.2
2018-04-09T00:53:59.423Z,11.2
2018-04-09T00:55:01.806Z,11.2
2018-04-09T00:56:04.472Z,11.1
2018-04-09T00:57:07.135Z,11.1
2018-04-09T00:58:09.515Z,11.1
2018-04-09T00:59:11.886Z,10.9
2018-04-09T01:00:14.273Z,10.8
2018-04-09T01:01:16.659Z,10.8
2018-04-09T01:02:19.043Z,10.8
2018-04-09T01:03:21.424Z,10.8
2018-04-09T01:04:23.812Z,10.8
2018-04-09T01:05:26.190Z,10.8
2018-04-09T01:06:28.593Z,10.8
2018-04-09T01:07:31.238Z,10.8
2018-04-09T01:08:34.022Z,10.8
2018-04-09T01:09:36.399Z,10.8
2018-04-09T01:10:38.777Z,10.8
2018-04-09T01:11:41.164Z,10.8
2018-04-09T01:12:43.542Z,10.8
2018-04-09T01:13:45.920Z,10.8
2018-04-09T01:14:48.581Z,10.8
2018-04-09T01:15:50.961Z,10.8
2018-04-09T01:16:53.350Z,10.7
2018-04-09T01:17:55.740Z,10.7
2018-04-09T01:18:58.124Z,10.7
2018-04-09T01:20:00.510Z,10.7
2018-04-09T01:21:04.074Z,10.7
2018-04-09T01:22:06.461Z,10.7
2018-04-09T01:23:08.836Z,10.7
2018-04-09T01:24:11.221Z,10.6
2018-04-09T01:25:13.607Z,10.6
2018-04-09T01:26:16.272Z,10.5
2018-04-09T01:27:19.036Z,10.5
2018-04-09T01:28:21.424Z,10.5
2018-04-09T01:29:23.802Z,10.5
2018-04-09T01:30:26.475Z,10.5
2018-04-09T01:31:29.141Z,10.5
2018-04-09T01:32:31.893Z,10.5
2018-04-09T01:33:34.277Z,10.4
2018-04-09T01:34:36.655Z,10.4
2018-04-09T01:35:39.034Z,10.4
2018-04-09T01:36:41.417Z,10.3
2018-04-09T01:37:43.813Z,10.3
2018-04-09T01:38:46.469Z,10.3
2018-04-09T01:39:48.848Z,10.3
2018-04-09T01:40:51.235Z,10.2
2018-04-09T01:41:53.881Z,10.2
2018-04-09T01:42:56.273Z,10.1
2018-04-09T01:43:58.933Z,10.2
2018-04-09T01:45:01.324Z,10.2
2018-04-09T01:46:03.723Z,10.2
2018-04-09T01:47:06.115Z,10.1
2018-04-09T01:48:08.496Z,10.1
2018-04-09T01:49:10.886Z,10.1
2018-04-09T01:50:13.570Z,10.1
2018-04-09T01:51:15.948Z,10
2018-04-09T01:52:18.323Z,9.9
2018-04-09T01:53:20.992Z,9.9
2018-04-09T01:54:23.372Z,9.9
2018-04-09T01:55:25.748Z,9.9
2018-04-09T01:56:28.143Z,9.9
2018-04-09T01:57:30.529Z,9.9
2018-04-09T01:58:32.908Z,9.9
2018-04-09T01:59:35.295Z,10
2018-04-09T02:00:37.964Z,9.9
2018-04-09T02:01:40.621Z,9.9
2018-04-09T02:02:43.291Z,9.9
2018-04-09T02:03:45.665Z,9.9
2018-04-09T02:04:48.716Z,9.9
2018-04-09T02:05:51.116Z,9.9
2018-04-09T02:06:53.869Z,9.9
2018-04-09T02:07:56.248Z,10
2018-04-09T02:08:58.633Z,9.9
2018-04-09T02:10:01.010Z,9.9
2018-04-09T02:11:03.979Z,10
2018-04-09T02:12:06.335Z,10
2018-04-09T02:13:08.716Z,10.1
2018-04-09T02:14:11.104Z,10.1
2018-04-09T02:15:13.492Z,10.2
2018-04-09T02:16:15.870Z,10.1
2018-04-09T02:17:18.269Z,9.7
2018-04-09T02:18:20.930Z,9.6
2018-04-09T02:19:23.309Z,9.6
2018-04-09T02:20:25.970Z,9.7
2018-04-09T02:21:28.357Z,9.7
2018-04-09T02:22:30.740Z,9.7
2018-04-09T02:23:33.407Z,9.6
2018-04-09T02:24:35.788Z,9.6
2018-04-09T02:25:38.171Z,9.5
2018-04-09T02:26:40.930Z,9.3
2018-04-09T02:27:43.320Z,9.3
2018-04-09T02:28:45.697Z,9.3
2018-04-09T02:29:48.659Z,9.4
2018-04-09T02:30:51.321Z,9.2
2018-04-09T02:31:53.698Z,9.2
2018-04-09T02:32:56.076Z,9.2
2018-04-09T02:33:58.457Z,9.1
2018-04-09T02:35:00.843Z,9.1
2018-04-09T02:36:03.223Z,9.1
2018-04-09T02:37:05.621Z,9.1
2018-04-09T02:38:08.000Z,9.1
2018-04-09T02:39:10.387Z,9.1
2018-04-09T02:40:12.774Z,9.1
2018-04-09T02:41:15.142Z,9.1
2018-04-09T02:42:17.813Z,9.1
2018-04-09T02:43:20.485Z,9.1
2018-04-09T02:44:22.868Z,9
2018-04-09T02:45:25.250Z,9
2018-04-09T02:46:27.635Z,9
2018-04-09T02:47:30.393Z,8.9
2018-04-09T02:48:32.783Z,8.9
2018-04-09T02:49:35.448Z,8.9
2018-04-09T02:50:37.819Z,8.9
2018-04-09T02:51:40.207Z,8.9
2018-04-09T02:52:42.590Z,8.9
2018-04-09T02:53:44.972Z,8.8
2018-04-09T02:54:47.378Z,8.8
2018-04-09T02:55:50.727Z,8.8
2018-04-09T02:56:53.103Z,8.8
2018-04-09T02:57:55.891Z,8.8
2018-04-09T02:58:58.261Z,8.8
2018-04-09T03:00:00.641Z,8.8
2018-04-09T03:01:03.331Z,8.8
2018-04-09T03:02:05.712Z,8.8
2018-04-09T03:03:08.094Z,8.7
2018-04-09T03:04:10.485Z,8.7
2018-04-09T03:05:13.518Z,8.7
2018-04-09T03:06:15.908Z,8.7
2018-04-09T03:07:18.283Z,8.7
2018-04-09T03:08:20.966Z,8.7
2018-04-09T03:09:23.406Z,8.7
2018-04-09T03:10:25.732Z,8.7
2018-04-09T03:11:28.114Z,8.7
2018-04-09T03:12:30.888Z,8.7
2018-04-09T03:13:33.556Z,8.6
2018-04-09T03:14:35.934Z,8.6
2018-04-09T03:15:38.311Z,8.6
2018-04-09T03:16:40.692Z,8.6
2018-04-09T03:17:43.068Z,8.6
2018-04-09T03:18:45.453Z,8.6
2018-04-09T03:19:48.096Z,8.6
2018-04-09T03:20:50.476Z,8.6
2018-04-09T03:21:52.873Z,8.5
2018-04-09T03:22:55.530Z,8.5
2018-04-09T03:23:57.906Z,8.5
2018-04-09T03:25:00.288Z,8.5
2018-04-09T03:26:02.665Z,8.4
2018-04-09T03:27:05.051Z,8.4
2018-04-09T03:28:07.863Z,8.3
2018-04-09T03:29:10.234Z,8.3
2018-04-09T03:30:13.007Z,8.3
2018-04-09T03:31:15.410Z,8.4
2018-04-09T03:32:17.788Z,8.3
2018-04-09T03:33:20.171Z,8.3
2018-04-09T03:34:22.559Z,8.3
2018-04-09T03:35:24.945Z,8.2
2018-04-09T03:36:27.616Z,8.2
2018-04-09T03:37:29.997Z,8.2
2018-04-09T03:38:32.371Z,8.2
2018-04-09T03:39:34.765Z,8.2
2018-04-09T03:40:37.149Z,8.2
2018-04-09T03:41:39.522Z,8.3
2018-04-09T03:42:41.909Z,8.4
2018-04-09T03:43:44.562Z,8.4
2018-04-09T03:44:47.325Z,8.4
2018-04-09T03:45:49.724Z,8.4
2018-04-09T03:46:52.102Z,8.5
2018-04-09T03:47:54.783Z,8.5
2018-04-09T03:48:57.452Z,8.5
2018-04-09T03:49:59.835Z,8.5
2018-04-09T03:51:02.223Z,8.5
2018-04-09T03:52:04.601Z,8.4
2018-04-09T03:53:06.990Z,8.4
2018-04-09T03:54:09.371Z,8.3
2018-04-09T03:55:11.736Z,8.3
2018-04-09T03:56:14.120Z,8.3
2018-04-09T03:57:17.077Z,8.4
2018-04-09T03:58:19.533Z,8.4
2018-04-09T03:59:21.838Z,8.4
2018-04-09T04:00:24.219Z,8.4
2018-04-09T04:01:26.602Z,8.4
2018-04-09T04:02:28.985Z,8.4
2018-04-09T04:03:31.360Z,8.4
2018-04-09T04:04:34.139Z,8.2
2018-04-09T04:05:36.534Z,8.2
2018-04-09T04:06:39.479Z,8.2
2018-04-09T04:07:41.872Z,8.2
2018-04-09T04:08:44.262Z,8.2
2018-04-09T04:09:46.629Z,8.3
2018-04-09T04:10:49.017Z,8.3
2018-04-09T04:11:51.407Z,8.3
2018-04-09T04:12:54.057Z,8.3
2018-04-09T04:13:56.713Z,8.3
2018-04-09T04:14:59.092Z,8.3
2018-04-09T04:16:01.466Z,8.3
2018-04-09T04:17:03.858Z,8.3
2018-04-09T04:18:06.241Z,8.4
2018-04-09T04:19:08.883Z,8.5
2018-04-09T04:20:11.265Z,8.6
2018-04-09T04:21:13.649Z,8.7
2018-04-09T04:22:16.020Z,8.7
2018-04-09T04:23:18.402Z,8.7
2018-04-09T04:24:20.773Z,8.6
2018-04-09T04:25:23.160Z,8.6
2018-04-09T04:26:25.539Z,8.7
2018-04-09T04:27:27.931Z,8.8
2018-04-09T04:28:30.307Z,8.9
2018-04-09T04:29:32.693Z,9
2018-04-09T04:30:35.080Z,8.9
2018-04-09T04:31:37.455Z,8.9
2018-04-09T04:32:39.832Z,8.9
2018-04-09T04:33:42.610Z,8.8
2018-04-09T04:34:45.368Z,8.8
2018-04-09T04:35:47.755Z,8.9
2018-04-09T04:36:50.131Z,8.9
2018-04-09T04:37:52.515Z,9
2018-04-09T04:38:54.888Z,9
2018-04-09T04:39:57.278Z,9
2018-04-09T04:40:59.650Z,9.1
2018-04-09T04:42:02.034Z,9.1
2018-04-09T04:43:04.395Z,9.1
2018-04-09T04:44:06.782Z,9.2
2018-04-09T04:45:09.479Z,9.2
2018-04-09T04:46:12.138Z,9.3
2018-04-09T04:47:14.816Z,9.3
2018-04-09T04:48:17.189Z,9.3
2018-04-09T04:49:19.856Z,9.4
2018-04-09T04:50:22.235Z,9.4
2018-04-09T04:51:25.000Z,9.4
2018-04-09T04:52:27.374Z,9.4
2018-04-09T04:53:29.759Z,9.4
2018-04-09T04:54:32.152Z,9.4
2018-04-09T04:55:34.529Z,9.4
2018-04-09T04:56:36.918Z,9.4
2018-04-09T04:57:39.301Z,9.5
2018-04-09T04:58:41.674Z,9.5
2018-04-09T04:59:44.356Z,9.5
2018-04-09T05:00:46.735Z,9.5
2018-04-09T05:01:49.102Z,9.5
2018-04-09T05:02:51.492Z,9.5
2018-04-09T05:03:53.862Z,9.5
2018-04-09T05:04:56.542Z,9.5
2018-04-09T05:05:58.930Z,9.5
2018-04-09T05:07:01.299Z,9.6
2018-04-09T05:08:03.681Z,9.6
2018-04-09T05:09:06.069Z,9.6
2018-04-09T05:10:08.446Z,9.6
2018-04-09T05:11:11.219Z,9.6
2018-04-09T05:12:13.600Z,9.7
2018-04-09T05:13:15.975Z,9.7
2018-04-09T05:14:18.359Z,9.7
2018-04-09T05:15:20.742Z,9.7
2018-04-09T05:16:23.119Z,9.7
2018-04-09T05:17:25.504Z,9.8
2018-04-09T05:18:27.880Z,9.8
2018-04-09T05:19:30.269Z,9.8
2018-04-09T05:20:32.637Z,9.9
2018-04-09T05:21:35.021Z,9.9
2018-04-09T05:22:37.405Z,9.9
2018-04-09T05:23:40.447Z,9.9
2018-04-09T05:24:42.829Z,9.9
2018-04-09T05:25:45.214Z,9.9
2018-04-09T05:26:47.580Z,10
2018-04-09T05:27:50.268Z,10
2018-04-09T05:28:52.646Z,10
2018-04-09T05:29:55.025Z,10
2018-04-09T05:30:57.400Z,10
2018-04-09T05:31:59.782Z,10
2018-04-09T05:33:02.780Z,10
2018-04-09T05:34:05.169Z,10
2018-04-09T05:35:07.538Z,10.1
2018-04-09T05:36:10.206Z,10.1
2018-04-09T05:37:12.588Z,10.2
2018-04-09T05:38:15.251Z,10.2
2018-04-09T05:39:17.633Z,10.2
2018-04-09T05:40:20.020Z,10.2
2018-04-09T05:41:22.391Z,10.2
2018-04-09T05:42:24.784Z,10.3
2018-04-09T05:43:27.163Z,10.3
2018-04-09T05:44:29.539Z,10.3
2018-04-09T05:45:32.205Z,10.3
2018-04-09T05:46:34.590Z,10.3
2018-04-09T05:47:36.972Z,10.4
2018-04-09T05:48:39.345Z,10.4
2018-04-09T05:49:41.730Z,10.4
2018-04-09T05:50:44.113Z,10.4
2018-04-09T05:51:46.500Z,10.4
2018-04-09T05:52:48.881Z,10.5
2018-04-09T05:53:51.272Z,10.5
2018-04-09T05:54:53.647Z,10.5
2018-04-09T05:55:56.313Z,10.6
2018-04-09T05:56:58.998Z,10.6
2018-04-09T05:58:01.653Z,10.6
2018-04-09T05:59:04.037Z,10.6
2018-04-09T06:00:06.705Z,10.6
2018-04-09T06:01:09.352Z,10.7
2018-04-09T06:02:11.748Z,10.7
2018-04-09T06:03:14.419Z,10.7
2018-04-09T06:04:16.797Z,10.8
2018-04-09T06:05:19.175Z,10.8
2018-04-09T06:06:21.554Z,10.9
2018-04-09T06:07:23.938Z,10.9
2018-04-09T06:08:26.324Z,10.9
2018-04-09T06:09:28.989Z,10.9
2018-04-09T06:10:31.368Z,11
2018-04-09T06:11:33.749Z,11.1
2018-04-09T06:12:36.141Z,11.1
2018-04-09T06:13:38.520Z,11.2
2018-04-09T06:14:41.293Z,11.2
2018-04-09T06:15:43.946Z,11.3
2018-04-09T06:16:46.715Z,11.3
2018-04-09T06:17:49.100Z,11.4
2018-04-09T06:18:51.490Z,11.4
2018-04-09T06:19:53.871Z,11.4
2018-04-09T06:20:56.256Z,11.4
2018-04-09T06:21:58.646Z,11.5
2018-04-09T06:23:01.310Z,11.5
2018-04-09T06:24:04.074Z,11.5
2018-04-09T06:25:06.467Z,11.5
2018-04-09T06:26:08.846Z,11.5
2018-04-09T06:27:11.220Z,11.6
2018-04-09T06:28:13.613Z,11.6
2018-04-09T06:29:15.994Z,11.6
2018-04-09T06:30:18.654Z,11.6
2018-04-09T06:31:21.038Z,11.6
2018-04-09T06:32:23.412Z,11.7
2018-04-09T06:33:25.805Z,11.6
2018-04-09T06:34:28.745Z,11.7
2018-04-09T06:35:31.407Z,11.7
2018-04-09T06:36:33.790Z,11.7
2018-04-09T06:37:36.174Z,11.8
2018-04-09T06:38:38.940Z,11.8
2018-04-09T06:39:41.343Z,11.8
2018-04-09T06:40:43.721Z,11.9
2018-04-09T06:41:46.099Z,11.9
2018-04-09T06:42:48.485Z,12
2018-04-09T06:43:51.525Z,12
2018-04-09T06:44:54.195Z,12.1
2018-04-09T06:45:56.583Z,12.2
2018-04-09T06:46:58.959Z,12.2
2018-04-09T06:48:01.352Z,12.3
2018-04-09T06:49:04.046Z,12.4
2018-04-09T06:50:06.428Z,12.4
2018-04-09T06:51:08.809Z,12.5
2018-04-09T06:52:11.191Z,12.6
2018-04-09T06:53:13.864Z,12.6
2018-04-09T06:54:16.242Z,12.7
2018-04-09T06:55:18.633Z,12.8
2018-04-09T06:56:21.006Z,12.9
2018-04-09T06:57:23.400Z,13
2018-04-09T06:58:25.792Z,13
2018-04-09T06:59:28.170Z,13
2018-04-09T07:00:30.840Z,13.1
2018-04-09T07:01:33.218Z,13.1
2018-04-09T07:02:35.607Z,13.2
2018-04-09T07:03:37.981Z,13.2
2018-04-09T07:04:40.379Z,13.3
2018-04-09T07:05:42.758Z,13.4
2018-04-09T07:06:45.137Z,13.4
2018-04-09T07:07:47.540Z,13.5
2018-04-09T07:08:49.917Z,13.6
2018-04-09T07:09:52.295Z,13.7
2018-04-09T07:10:54.683Z,13.8
2018-04-09T07:11:57.347Z,13.9
2018-04-09T07:12:59.729Z,13.9
2018-04-09T07:14:02.123Z,14
2018-04-09T07:15:04.501Z,14
2018-04-09T07:16:06.883Z,14.1
2018-04-09T07:17:09.567Z,14.1
2018-04-09T07:18:11.951Z,14.2
2018-04-09T07:19:14.338Z,14.2
2018-04-09T07:20:17.011Z,14.3
2018-04-09T07:21:19.398Z,14.3
2018-04-09T07:22:21.774Z,14.4
2018-04-09T07:23:24.160Z,14.5
2018-04-09T07:24:26.559Z,14.5
2018-04-09T07:25:28.948Z,14.6
2018-04-09T07:26:31.338Z,14.6
2018-04-09T07:27:33.730Z,14.6
2018-04-09T07:28:36.117Z,14.7
2018-04-09T07:29:38.808Z,14.7
2018-04-09T07:30:41.192Z,14.7
2018-04-09T07:31:44.238Z,14.8
2018-04-09T07:32:47.188Z,14.9
2018-04-09T07:33:49.582Z,14.9
2018-04-09T07:34:51.964Z,14.9
2018-04-09T07:35:54.651Z,15
2018-04-09T07:36:57.045Z,15.1
2018-04-09T07:37:59.432Z,15.2
2018-04-09T07:39:01.840Z,15.3
2018-04-09T07:40:04.504Z,15.4
2018-04-09T07:41:06.890Z,15.5
2018-04-09T07:42:09.579Z,15.5
2018-04-09T07:43:11.961Z,15.6
2018-04-09T07:44:14.349Z,15.8
2018-04-09T07:45:16.739Z,16
2018-04-09T07:46:19.121Z,16
2018-04-09T07:47:21.890Z,16.1
2018-04-09T07:48:24.676Z,16.1
2018-04-09T07:49:27.443Z,16.3
2018-04-09T07:50:29.826Z,16.4
2018-04-09T07:51:32.216Z,16.5
2018-04-09T07:52:34.907Z,16.6
2018-04-09T07:53:37.577Z,16.7
2018-04-09T07:54:40.264Z,16.8
2018-04-09T07:55:42.638Z,16.9
2018-04-09T07:56:45.034Z,17.2
2018-04-09T07:57:47.424Z,17.4
2018-04-09T07:58:49.814Z,17.5
2018-04-09T07:59:52.628Z,17.6
2018-04-09T08:00:55.010Z,17.8
2018-04-09T08:01:57.401Z,17.8
2018-04-09T08:03:00.069Z,18
2018-04-09T08:04:02.745Z,18
2018-04-09T08:05:05.419Z,17.8
2018-04-09T08:06:07.884Z,17.5
2018-04-09T08:07:10.224Z,17.7
2018-04-09T08:08:12.892Z,18
2018-04-09T08:09:15.284Z,18.2
2018-04-09T08:10:17.679Z,18
2018-04-09T08:11:20.070Z,18
2018-04-09T08:12:22.465Z,18.4
2018-04-09T08:13:25.132Z,18.5
2018-04-09T08:14:27.510Z,18.5
2018-04-09T08:15:30.185Z,18.6
2018-04-09T08:16:32.576Z,18.7
2018-04-09T08:17:34.958Z,18.8
2018-04-09T08:18:37.628Z,18.9
2018-04-09T08:19:40.035Z,19
2018-04-09T08:20:42.419Z,18.6
2018-04-09T08:21:44.819Z,18.7
2018-04-09T08:22:47.203Z,18.9
2018-04-09T08:23:49.601Z,18.8
2018-04-09T08:24:51.990Z,18.6
2018-04-09T08:25:54.389Z,19
2018-04-09T08:26:56.774Z,19
2018-04-09T08:27:59.174Z,19.1
2018-04-09T08:29:01.852Z,18.6
2018-04-09T08:30:04.648Z,18.9
2018-04-09T08:31:07.025Z,18.6
2018-04-09T08:32:09.415Z,18.8
2018-04-09T08:33:12.187Z,19
2018-04-09T08:34:14.581Z,18.7
2018-04-09T08:35:16.978Z,18.8
2018-04-09T08:36:19.367Z,19.1
2018-04-09T08:37:22.063Z,19.2
2018-04-09T08:38:24.753Z,19.8
2018-04-09T08:39:27.127Z,19.4
2018-04-09T08:40:29.824Z,19.5
2018-04-09T08:41:32.212Z,19.7
2018-04-09T08:42:34.602Z,19.9
2018-04-09T08:43:36.998Z,19.9
2018-04-09T08:44:39.774Z,20.1
2018-04-09T08:45:42.159Z,20.1
2018-04-09T08:46:44.565Z,19.8
2018-04-09T08:47:46.960Z,19.6
2018-04-09T08:48:49.634Z,20.1
2018-04-09T08:49:52.028Z,20.1
2018-04-09T08:50:54.427Z,20.1
2018-04-09T08:51:56.817Z,20.1
2018-04-09T08:52:59.514Z,19.7
2018-04-09T08:54:01.900Z,19.8
2018-04-09T08:55:04.294Z,19.7
2018-04-09T08:56:06.692Z,19.7
2018-04-09T08:57:09.085Z,20
2018-04-09T08:58:11.761Z,20.1
2018-04-09T08:59:14.543Z,20.2
2018-04-09T09:00:16.935Z,20.3
2018-04-09T09:01:19.640Z,20.5
2018-04-09T09:02:22.046Z,20.3
2018-04-09T09:03:24.438Z,20
2018-04-09T09:04:26.841Z,20
2018-04-09T09:05:29.239Z,20.4
2018-04-09T09:06:31.937Z,19.9
2018-04-09T09:07:34.336Z,20.2
2018-04-09T09:08:36.746Z,20.2
2018-04-09T09:09:39.144Z,20.7
2018-04-09T09:10:41.825Z,20.5
2018-04-09T09:11:44.213Z,20.3
2018-04-09T09:12:46.617Z,20.1
2018-04-09T09:13:49.021Z,19.9
2018-04-09T09:14:51.422Z,20.4
2018-04-09T09:15:53.819Z,20.3
2018-04-09T09:16:56.507Z,20.4
2018-04-09T09:17:59.188Z,20.5
2018-04-09T09:19:01.583Z,20.4
2018-04-09T09:20:04.263Z,20.4
2018-04-09T09:21:07.052Z,20.6
2018-04-09T09:22:09.444Z,20.8
2018-04-09T09:23:11.850Z,20.5
2018-04-09T09:24:14.249Z,20.8
2018-04-09T09:25:16.636Z,21.1
2018-04-09T09:26:19.040Z,20.7
2018-04-09T09:27:21.448Z,20.7
2018-04-09T09:28:23.843Z,20.9
2018-04-09T09:29:26.294Z,20.8
2018-04-09T09:30:28.654Z,21
2018-04-09T09:31:31.057Z,20.9
2018-04-09T09:32:33.464Z,21.1
2018-04-09T09:33:35.861Z,21.4
2018-04-09T09:34:38.270Z,21.3
2018-04-09T09:35:41.057Z,21.2
2018-04-09T09:36:43.453Z,21
2018-04-09T09:37:45.842Z,21.6
2018-04-09T09:38:48.529Z,21.8
2018-04-09T09:39:50.927Z,21.9
2018-04-09T09:40:53.316Z,21.9
2018-04-09T09:41:55.712Z,21.8
2018-04-09T09:42:58.114Z,21.7
2018-04-09T09:44:00.515Z,21.8
2018-04-09T09:45:02.926Z,21.7
2018-04-09T09:46:05.598Z,21.7
2018-04-09T09:47:08.380Z,21.7
2018-04-09T09:48:10.775Z,21.8
2018-04-09T09:49:13.209Z,22
2018-04-09T09:50:15.874Z,21.7
2018-04-09T09:51:18.546Z,21.1
2018-04-09T09:52:20.964Z,21.4
2018-04-09T09:53:23.355Z,21.9
2018-04-09T09:54:25.761Z,22
2018-04-09T09:55:28.553Z,22.4
2018-04-09T09:56:30.948Z,21.9
2018-04-09T09:57:33.352Z,22.6
2018-04-09T09:58:36.072Z,22.8
2018-04-09T09:59:38.470Z,22.6
2018-04-09T10:00:40.873Z,22.7
2018-04-09T10:01:43.305Z,22.6
2018-04-09T10:02:46.061Z,22.8
2018-04-09T10:03:48.481Z,22.7
2018-04-09T10:04:50.879Z,22.7
2018-04-09T10:05:53.284Z,22.9
2018-04-09T10:06:55.690Z,22.4
2018-04-09T10:07:58.359Z,22.3
2018-04-09T10:09:01.059Z,22.3
2018-04-09T10:10:04.412Z,22.7
2018-04-09T10:11:06.799Z,23
2018-04-09T10:12:09.213Z,23.2
2018-04-09T10:13:11.614Z,23
2018-04-09T10:14:14.022Z,22.8
2018-04-09T10:15:16.424Z,22.7
2018-04-09T10:16:18.843Z,22.8
2018-04-09T10:17:21.243Z,22.6
2018-04-09T10:18:23.633Z,22.7
2018-04-09T10:19:26.037Z,22.6
2018-04-09T10:20:28.442Z,22.5
2018-04-09T10:21:30.850Z,23.2
2018-04-09T10:22:33.253Z,22.9
2018-04-09T10:23:36.321Z,22.8
2018-04-09T10:24:38.730Z,23
2018-04-09T10:25:41.143Z,22.9
2018-04-09T10:26:43.544Z,23
2018-04-09T10:27:45.935Z,22.9
2018-04-09T10:28:48.335Z,22.9
2018-04-09T10:29:50.739Z,22.9
2018-04-09T10:30:53.419Z,23
2018-04-09T10:31:55.816Z,23
2018-04-09T10:32:58.214Z,22.9
2018-04-09T10:34:00.993Z,23.5
2018-04-09T10:35:03.406Z,23.5
2018-04-09T10:36:05.802Z,23.3
2018-04-09T10:37:08.587Z,23.3
2018-04-09T10:38:10.997Z,23.5
2018-04-09T10:39:13.406Z,23.5
2018-04-09T10:40:15.792Z,23.4
2018-04-09T10:41:18.197Z,23.4
2018-04-09T10:42:20.587Z,23.6
2018-04-09T10:43:23.000Z,23.8
2018-04-09T10:44:25.402Z,23.4
2018-04-09T10:45:27.806Z,23.8
2018-04-09T10:46:30.600Z,24
2018-04-09T10:47:33.307Z,23.4
2018-04-09T10:48:35.708Z,23.2
2018-04-09T10:49:38.156Z,23
2018-04-09T10:50:40.511Z,23.7
2018-04-09T10:51:42.904Z,23.5
2018-04-09T10:52:45.324Z,23.3
2018-04-09T10:53:47.716Z,24.1
2018-04-09T10:54:50.410Z,24.4
2018-04-09T10:55:52.812Z,24.1
2018-04-09T10:56:55.220Z,24.1
2018-04-09T10:57:57.912Z,23.8
2018-04-09T10:59:00.709Z,23.4
2018-04-09T11:00:03.780Z,23.9
2018-04-09T11:01:06.919Z,24
2018-04-09T11:02:09.640Z,24.4
2018-04-09T11:03:12.039Z,24.4
2018-04-09T11:04:14.452Z,24.4
2018-04-09T11:05:16.858Z,24.1
2018-04-09T11:06:19.256Z,24.4
2018-04-09T11:07:21.669Z,24
2018-04-09T11:08:24.062Z,24.3
2018-04-09T11:09:26.469Z,24.3
2018-04-09T11:10:28.868Z,24.8
2018-04-09T11:11:31.276Z,24.3
2018-04-09T11:12:33.681Z,24
2018-04-09T11:13:36.375Z,24.1
2018-04-09T11:14:38.776Z,24.1
2018-04-09T11:15:41.179Z,24.6
2018-04-09T11:16:43.965Z,25
2018-04-09T11:17:46.376Z,24.7
2018-04-09T11:18:49.056Z,24.3
2018-04-09T11:19:51.456Z,24.6
2018-04-09T11:20:54.142Z,24.6
2018-04-09T11:21:56.937Z,25
2018-04-09T11:22:59.343Z,24.9
2018-04-09T11:24:02.420Z,24.5
2018-04-09T11:25:04.828Z,24.9
2018-04-09T11:26:07.226Z,25
2018-04-09T11:27:09.645Z,24.7
2018-04-09T11:28:12.652Z,25
2018-04-09T11:29:15.062Z,25.2
2018-04-09T11:30:17.750Z,24.9
2018-04-09T11:31:20.371Z,24.6
2018-04-09T11:32:22.784Z,24.5
2018-04-09T11:33:25.195Z,25
2018-04-09T11:34:27.592Z,25
2018-04-09T11:35:30.275Z,24.8
2018-04-09T11:36:32.696Z,24.8
2018-04-09T11:37:35.093Z,24.7
2018-04-09T11:38:37.780Z,24.8
2018-04-09T11:39:40.448Z,24.7
2018-04-09T11:40:42.861Z,25.3
2018-04-09T11:41:45.277Z,25.3
2018-04-09T11:42:47.679Z,24.6
2018-04-09T11:43:50.086Z,24.9
2018-04-09T11:44:52.494Z,24.4
2018-04-09T11:45:54.904Z,24.2
2018-04-09T11:46:57.596Z,24.2
2018-04-09T11:48:00.276Z,24.7
2018-04-09T11:49:03.073Z,24.2
2018-04-09T11:50:05.472Z,24.6
2018-04-09T11:51:07.880Z,24.8
2018-04-09T11:52:10.578Z,25.3
2018-04-09T11:53:12.986Z,24.9
2018-04-09T11:54:15.393Z,25.2
2018-04-09T11:55:18.363Z,24.8
2018-04-09T11:56:20.768Z,25.1
2018-04-09T11:57:23.175Z,25.3
2018-04-09T11:58:25.578Z,25.2
2018-04-09T11:59:27.984Z,24.8
2018-04-09T12:00:30.698Z,25
2018-04-09T12:01:33.108Z,25.3
2018-04-09T12:02:35.519Z,24.7
2018-04-09T12:03:37.926Z,24.9
2018-04-09T12:04:40.329Z,25.7
2018-04-09T12:05:43.127Z,25.9
2018-04-09T12:06:45.546Z,25.6
2018-04-09T12:07:47.953Z,25.6
2018-04-09T12:08:50.744Z,25.5
2018-04-09T12:09:53.155Z,25.6
2018-04-09T12:10:55.575Z,25.6
2018-04-09T12:11:57.987Z,25.4
2018-04-09T12:13:00.399Z,25.1
2018-04-09T12:14:02.799Z,25.6
2018-04-09T12:15:05.193Z,25.3
2018-04-09T12:16:07.609Z,25.1
2018-04-09T12:17:10.301Z,24.3
2018-04-09T12:18:12.709Z,24.8
2018-04-09T12:19:15.118Z,24.7
2018-04-09T12:20:17.541Z,24.3
2018-04-09T12:21:19.943Z,24.8
2018-04-09T12:22:22.642Z,25.3
2018-04-09T12:23:25.042Z,25
2018-04-09T12:24:27.442Z,25.1
2018-04-09T12:25:29.855Z,25
2018-04-09T12:26:32.263Z,24.5
2018-04-09T12:27:34.951Z,25
2018-04-09T12:28:37.370Z,24.4
2018-04-09T12:29:39.765Z,24.5
2018-04-09T12:30:42.173Z,24
2018-04-09T12:31:44.582Z,24.5
2018-04-09T12:32:47.280Z,25.2
2018-04-09T12:33:49.966Z,25.5
2018-04-09T12:34:52.372Z,25.4
2018-04-09T12:35:54.775Z,25.1
2018-04-09T12:36:57.471Z,24.8
2018-04-09T12:37:59.877Z,25.5
2018-04-09T12:39:02.267Z,25.1
2018-04-09T12:40:04.678Z,24.9
2018-04-09T12:41:07.370Z,25.4
2018-04-09T12:42:09.776Z,25.2
2018-04-09T12:43:12.180Z,24.5
2018-04-09T12:44:14.881Z,25
2018-04-09T12:45:17.289Z,24.9
2018-04-09T12:46:19.702Z,24.9
2018-04-09T12:47:22.164Z,24.9
2018-04-09T12:48:24.514Z,24.3
2018-04-09T12:49:27.207Z,24.7
2018-04-09T12:50:29.907Z,24.8
2018-04-09T12:51:32.585Z,25
2018-04-09T12:52:34.990Z,25.2
2018-04-09T12:53:37.984Z,24.8
2018-04-09T12:54:40.394Z,24.9
2018-04-09T12:55:42.810Z,25.2
2018-04-09T12:56:45.218Z,25
2018-04-09T12:57:47.599Z,25.3
2018-04-09T12:58:53.035Z,25.3
2018-04-09T12:59:55.443Z,24.9
2018-04-09T13:02:00.512Z,25.8
2018-04-09T13:03:02.904Z,25.5
2018-04-09T13:04:05.978Z,25.4
2018-04-09T13:05:08.398Z,25.7
2018-04-09T13:06:10.804Z,25.4
2018-04-09T13:07:13.216Z,25.2
2018-04-09T13:08:15.620Z,25.5
2018-04-09T13:09:18.033Z,25.5
2018-04-09T13:10:20.449Z,25.5
2018-04-09T13:11:22.846Z,25.5
2018-04-09T13:12:25.243Z,25.3
2018-04-09T13:13:27.651Z,25.5
2018-04-09T13:14:30.070Z,25.3
2018-04-09T13:15:32.780Z,25
2018-04-09T13:16:35.214Z,24.8
2018-04-09T13:17:37.906Z,24.8
2018-04-09T13:18:40.896Z,24.6
2018-04-09T13:19:43.299Z,25.1
2018-04-09T13:20:45.711Z,25.3
2018-04-09T13:21:48.105Z,25.5
2018-04-09T13:22:50.506Z,25.1
2018-04-09T13:23:52.911Z,25.4
2018-04-09T13:24:55.329Z,25.1
2018-04-09T13:25:57.733Z,24.5
2018-04-09T13:27:00.699Z,24.9
2018-04-09T13:28:03.093Z,25.2
2018-04-09T13:29:05.518Z,25.2
2018-04-09T13:30:08.587Z,24.8
2018-04-09T13:31:10.998Z,24.5
2018-04-09T13:32:13.405Z,24.7
2018-04-09T13:33:15.819Z,24.7
2018-04-09T13:34:18.220Z,24.6
2018-04-09T13:35:20.636Z,24.6
2018-04-09T13:36:23.034Z,24.5
2018-04-09T13:37:25.452Z,24.9
2018-04-09T13:38:27.854Z,24.7
2018-04-09T13:39:30.829Z,24.8
2018-04-09T13:40:33.230Z,24.4
2018-04-09T13:41:35.636Z,24.5
2018-04-09T13:42:38.045Z,24.7
2018-04-09T13:43:40.455Z,25
2018-04-09T13:44:42.863Z,25.4
2018-04-09T13:45:45.274Z,25.6
2018-04-09T13:46:47.675Z,25.7
2018-04-09T13:47:50.081Z,25.4
2018-04-09T13:48:53.153Z,24.8
2018-04-09T13:49:55.561Z,24.5
2018-04-09T13:50:58.250Z,24.7
2018-04-09T13:52:01.044Z,24.1
2018-04-09T13:53:03.449Z,24.3
2018-04-09T13:54:06.251Z,24.4
2018-04-09T13:55:08.663Z,24.4
2018-04-09T13:56:11.076Z,24.5
2018-04-09T13:57:13.482Z,24.4
2018-04-09T13:58:15.897Z,24.3
2018-04-09T13:59:18.581Z,24.2
2018-04-09T14:00:21.002Z,23.9
2018-04-09T14:01:23.404Z,23.5
2018-04-09T14:02:25.803Z,24
2018-04-09T14:03:28.585Z,24
2018-04-09T14:04:30.990Z,24.1
2018-04-09T14:05:33.673Z,24.2